Main page
METAR-TAF:

METAR-TAF

Airports :

Trieste – Friuli Venezia Giulia Airport

Trieste / Ronchi dei Legionari, Italy

latitude: 45-49N, longitude: 013-29E, elevation: 12 m

Current weather observation

The report was made 26 minutes ago, at 07:20 UTC
Wind 4 kt from the North, varying between Northwest and North/Northeast
Temperature 16°C
Humidity 55%
Pressure 1030 hPa
Visibility 10 km or more
no clouds below 1500 m and no cumulonimbus

METAR: LIPQ 190720Z 36004KT 320V020 CAVOK 16/07 Q1030

Time: 09:46 (07:46 UTC)

Forecast

The report was made 2 hours and 46 minutes ago, at 05:00 UTC
Forecast valid from 19 at 06 UTC to 20 at 06 UTC
Wind 5 kt from variable directions
Visibility 10 km or more
no clouds below 1500 m and no cumulonimbus

TAF: LIPQ 190500Z 1906/2006 VRB05KT CAVOK

Weather observations and forecasts of more than 4000 airports (METAR and TAF reports).

The available stations are represented by yellow and red dots on the map.

Hover mouse over dot to see the name of the station.

Then click to see weather observations and forecasts.

To change the map : click on the green buttons with a black cross to zoom in, on the green button with a dash to zoom out, or on the green arrows for adjacent maps.


METAR-TAF: